createdAt,value
2023-01-21T00:00:36.972Z,96961.50
2023-01-21T00:03:03.696Z,96960.22
2023-01-21T00:05:30.472Z,96958.25
2023-01-21T00:07:57.160Z,96954.69
2023-01-21T00:10:23.816Z,96954.38
2023-01-21T00:12:50.473Z,96959.06
2023-01-21T00:15:17.123Z,96948.13
2023-01-21T00:17:43.893Z,96940.66
2023-01-21T00:20:10.596Z,96932.53
2023-01-21T00:22:37.231Z,96927.00
2023-01-21T00:25:03.872Z,96930.38
2023-01-21T00:27:30.491Z,96925.19
2023-01-21T00:29:57.153Z,96918.03
2023-01-21T00:32:23.760Z,96921.63
2023-01-21T00:34:50.474Z,96920.63
2023-01-21T00:37:17.125Z,96898.50
2023-01-21T00:39:43.743Z,96911.38
2023-01-21T00:42:10.455Z,96898.00
2023-01-21T00:44:37.110Z,96900.81
2023-01-21T00:47:03.833Z,96897.69
2023-01-21T00:49:30.501Z,96894.41
2023-01-21T00:51:57.179Z,96893.31
2023-01-21T00:54:23.797Z,96899.81
2023-01-21T00:56:50.462Z,96895.72
2023-01-21T00:59:17.220Z,96889.88
2023-01-21T01:01:43.971Z,96900.78
2023-01-21T01:04:10.702Z,96887.75
2023-01-21T01:06:37.362Z,96884.84
2023-01-21T01:09:03.996Z,96881.25
2023-01-21T01:11:30.624Z,96883.66
2023-01-21T01:13:57.264Z,96888.91
2023-01-21T01:16:23.963Z,96893.47
2023-01-21T01:18:50.664Z,96887.94
2023-01-21T01:21:17.268Z,96890.53
2023-01-21T01:23:43.940Z,96884.66
2023-01-21T01:26:10.575Z,96883.56
2023-01-21T01:28:37.302Z,96891.19
2023-01-21T01:31:03.963Z,96884.16
2023-01-21T01:33:30.676Z,96878.16
2023-01-21T01:35:57.325Z,96884.69
2023-01-21T01:38:23.981Z,96877.34
2023-01-21T01:40:50.661Z,96881.09
2023-01-21T01:43:17.336Z,96868.06
2023-01-21T01:45:44.014Z,96873.94
2023-01-21T01:48:10.612Z,96865.13
2023-01-21T01:50:37.277Z,96866.56
2023-01-21T01:53:03.924Z,96860.91
2023-01-21T01:55:30.538Z,96856.84
2023-01-21T01:57:57.233Z,96865.59
2023-01-21T02:00:23.868Z,96853.06
2023-01-21T02:02:50.534Z,96853.41
2023-01-21T02:05:17.131Z,96855.19
2023-01-21T02:07:43.848Z,96849.00
2023-01-21T02:10:10.458Z,96849.34
2023-01-21T02:12:37.079Z,96854.72
2023-01-21T02:15:03.743Z,96852.72
2023-01-21T02:17:30.365Z,96850.13
2023-01-21T02:19:57.049Z,96846.53
2023-01-21T02:22:23.718Z,96836.50
2023-01-21T02:24:50.365Z,96845.78
2023-01-21T02:27:17.001Z,96835.69
2023-01-21T02:29:43.669Z,96845.25
2023-01-21T02:32:10.360Z,96849.63
2023-01-21T02:34:37.035Z,96838.09
2023-01-21T02:37:03.743Z,96832.38
2023-01-21T02:39:30.343Z,96844.75
2023-01-21T02:41:57.030Z,96833.25
2023-01-21T02:44:23.670Z,96845.38
2023-01-21T02:46:50.352Z,96844.47
2023-01-21T02:49:17.063Z,96840.25
2023-01-21T02:51:43.652Z,96829.19
2023-01-21T02:54:10.382Z,96831.13
2023-01-21T02:56:37.047Z,96831.47
2023-01-21T02:59:03.720Z,96831.13
2023-01-21T03:01:30.321Z,96840.00
2023-01-21T03:03:56.912Z,96843.28
2023-01-21T03:06:23.573Z,96834.50
2023-01-21T03:08:50.212Z,96848.00
2023-01-21T03:11:16.924Z,96838.72
2023-01-21T03:13:43.551Z,96841.28
2023-01-21T03:16:10.270Z,96842.38
2023-01-21T03:18:36.944Z,96847.03
2023-01-21T03:21:03.639Z,96839.22
2023-01-21T03:23:30.337Z,96837.16
2023-01-21T03:25:56.957Z,96841.66
2023-01-21T03:28:23.581Z,96835.31
2023-01-21T03:30:50.184Z,96830.94
2023-01-21T03:33:16.842Z,96826.06
2023-01-21T03:35:43.521Z,96826.88
2023-01-21T03:38:10.171Z,96821.84
2023-01-21T03:40:36.826Z,96820.53
2023-01-21T03:43:03.739Z,96827.53
2023-01-21T03:45:30.587Z,96836.16
2023-01-21T03:47:57.241Z,96830.50
2023-01-21T03:50:23.920Z,96828.66
2023-01-21T03:52:50.554Z,96823.81
2023-01-21T03:55:17.257Z,96829.66
2023-01-21T03:57:43.926Z,96821.53
2023-01-21T04:00:10.615Z,96817.63
2023-01-21T04:02:37.298Z,96819.41
2023-01-21T04:05:03.976Z,96826.13
2023-01-21T04:07:30.586Z,96812.19
2023-01-21T04:09:57.234Z,96819.34
2023-01-21T04:12:23.944Z,96810.41
2023-01-21T04:14:50.619Z,96819.56
2023-01-21T04:17:17.283Z,96822.16
2023-01-21T04:19:43.888Z,96818.41
2023-01-21T04:22:10.534Z,96828.97
2023-01-21T04:24:37.194Z,96834.19
2023-01-21T04:27:03.900Z,96842.97
2023-01-21T04:29:30.590Z,96845.75
2023-01-21T04:31:57.248Z,96850.13
2023-01-21T04:34:23.938Z,96867.38
2023-01-21T04:36:50.635Z,96871.16
2023-01-21T04:39:17.559Z,96871.19
2023-01-21T04:41:44.225Z,96867.41
2023-01-21T04:44:10.870Z,96882.94
2023-01-21T04:46:37.514Z,96900.25
2023-01-21T04:49:04.152Z,96901.44
2023-01-21T04:51:30.823Z,96906.66
2023-01-21T04:53:57.452Z,96911.25
2023-01-21T04:56:24.117Z,96913.47
2023-01-21T04:58:50.734Z,96927.31
2023-01-21T05:01:17.448Z,96932.66
2023-01-21T05:03:44.170Z,96938.69
2023-01-21T05:06:10.810Z,96923.06
2023-01-21T05:08:37.488Z,96922.91
2023-01-21T05:11:04.154Z,96931.06
2023-01-21T05:13:30.797Z,96936.09
2023-01-21T05:15:57.548Z,96929.09
2023-01-21T05:18:24.207Z,96929.28
2023-01-21T05:20:50.909Z,96929.59
2023-01-21T05:23:17.579Z,96925.66
2023-01-21T05:25:44.200Z,96928.22
2023-01-21T05:28:10.862Z,96928.78
2023-01-21T05:30:40.186Z,96939.34
2023-01-21T05:33:07.418Z,96930.81
2023-01-21T05:35:34.024Z,96947.69
2023-01-21T05:38:00.661Z,96949.31
2023-01-21T05:40:27.310Z,96952.59
2023-01-21T05:42:53.951Z,96944.63
2023-01-21T05:45:20.644Z,96956.66
2023-01-21T05:47:47.349Z,96957.31
2023-01-21T05:50:14.002Z,96956.97
2023-01-21T05:52:40.735Z,96954.56
2023-01-21T05:55:07.387Z,96957.81
2023-01-21T05:57:34.036Z,96949.56
2023-01-21T06:00:00.701Z,96960.69
2023-01-21T06:02:27.439Z,96962.81
2023-01-21T06:04:54.139Z,96956.38
2023-01-21T06:07:20.804Z,96960.41
2023-01-21T06:09:47.525Z,96959.03
2023-01-21T06:12:14.152Z,96958.41
2023-01-21T06:14:40.763Z,96956.13
2023-01-21T06:17:07.405Z,96957.59
2023-01-21T06:19:34.065Z,96959.31
2023-01-21T06:22:00.665Z,96968.34
2023-01-21T06:24:27.256Z,96965.91
2023-01-21T06:26:53.891Z,96977.47
2023-01-21T06:29:20.523Z,96974.69
2023-01-21T06:31:47.303Z,96978.91
2023-01-21T06:34:14.074Z,96975.28
2023-01-21T06:36:40.779Z,96986.09
2023-01-21T06:39:07.422Z,96993.31
2023-01-21T06:41:34.289Z,96997.72
2023-01-21T06:44:00.972Z,97004.41
2023-01-21T06:46:27.683Z,97007.19
2023-01-21T06:48:54.430Z,97010.91
2023-01-21T06:51:21.169Z,97017.09
2023-01-21T06:53:47.872Z,97015.44
2023-01-21T06:56:14.541Z,97015.44
2023-01-21T06:58:41.223Z,97019.16
2023-01-21T07:01:07.896Z,97034.50
2023-01-21T07:03:34.622Z,97037.91
2023-01-21T07:06:01.240Z,97037.50
2023-01-21T07:08:27.842Z,97037.41
2023-01-21T07:10:54.492Z,97043.28
2023-01-21T07:13:21.128Z,97049.84
2023-01-21T07:15:47.853Z,97043.03
2023-01-21T07:18:14.548Z,97051.47
2023-01-21T07:20:41.220Z,97045.91
2023-01-21T07:23:07.893Z,97043.97
2023-01-21T07:25:34.522Z,97050.81
2023-01-21T07:28:01.213Z,97052.34
2023-01-21T07:30:27.896Z,97060.13
2023-01-21T07:32:54.593Z,97064.38
2023-01-21T07:35:21.303Z,97060.41
2023-01-21T07:37:47.972Z,97077.19
2023-01-21T07:40:14.596Z,97076.94
2023-01-21T07:42:41.335Z,97078.88
2023-01-21T07:45:08.047Z,97074.50
2023-01-21T07:47:34.726Z,97076.16
2023-01-21T07:50:01.367Z,97074.78
2023-01-21T07:52:28.026Z,97068.09
2023-01-21T07:54:54.629Z,97073.31
2023-01-21T07:57:21.311Z,97080.38
2023-01-21T07:59:47.975Z,97071.25
2023-01-21T08:02:14.738Z,97074.19
2023-01-21T08:04:41.403Z,97073.19
2023-01-21T08:07:08.079Z,97083.66
2023-01-21T08:09:34.750Z,97078.66
2023-01-21T08:12:01.354Z,97088.38
2023-01-21T08:14:28.028Z,97092.16
2023-01-21T08:16:54.696Z,97090.03
2023-01-21T08:19:21.380Z,97090.31
2023-01-21T08:21:48.116Z,97082.84
2023-01-21T08:24:14.768Z,97080.13
2023-01-21T08:26:41.499Z,97077.84
2023-01-21T08:29:08.166Z,97088.44
2023-01-21T08:31:34.908Z,97081.09
2023-01-21T08:34:01.676Z,97076.22
2023-01-21T08:36:28.312Z,97082.00
2023-01-21T08:38:54.956Z,97072.25
2023-01-21T08:41:21.577Z,97070.19
2023-01-21T08:43:48.213Z,97081.75
2023-01-21T08:46:14.864Z,97087.47
2023-01-21T08:48:41.536Z,97079.44
2023-01-21T08:51:08.259Z,97091.03
2023-01-21T08:53:34.964Z,97090.72
2023-01-21T08:56:01.655Z,97090.06
2023-01-21T08:58:28.313Z,97092.84
2023-01-21T09:00:55.030Z,97101.66
2023-01-21T09:03:21.746Z,97101.97
2023-01-21T09:05:48.392Z,97096.25
2023-01-21T09:08:15.071Z,97089.19
2023-01-21T09:10:41.692Z,97099.16
2023-01-21T09:13:08.349Z,97096.16
2023-01-21T09:15:35.055Z,97096.69
2023-01-21T09:18:01.718Z,97092.38
2023-01-21T09:20:28.394Z,97089.06
2023-01-21T09:22:55.063Z,97091.16
2023-01-21T09:25:23.295Z,97090.97
2023-01-21T09:27:50.143Z,97084.69
2023-01-21T09:30:16.811Z,97091.13
2023-01-21T09:32:43.467Z,97083.41
2023-01-21T09:35:10.085Z,97086.25
2023-01-21T09:37:36.785Z,97083.50
2023-01-21T09:40:03.402Z,97073.75
2023-01-21T09:42:30.044Z,97076.31
2023-01-21T09:44:56.677Z,97080.25
2023-01-21T09:47:23.341Z,97074.03
2023-01-21T09:49:49.987Z,97076.69
2023-01-21T09:52:16.703Z,97063.38
2023-01-21T09:54:43.361Z,97071.78
2023-01-21T09:57:09.989Z,97063.13
2023-01-21T09:59:36.600Z,97064.38
2023-01-21T10:02:03.232Z,97063.34
2023-01-21T10:04:30.054Z,97062.13
2023-01-21T10:06:56.768Z,97054.41
2023-01-21T10:09:23.450Z,97054.06
2023-01-21T10:11:50.077Z,97059.63
2023-01-21T10:14:16.721Z,97054.66
2023-01-21T10:16:43.412Z,97051.34
2023-01-21T10:19:10.393Z,97046.31
2023-01-21T10:21:37.053Z,97047.06
2023-01-21T10:24:03.761Z,97056.91
2023-01-21T10:26:30.417Z,97042.22
2023-01-21T10:28:57.029Z,97041.13
2023-01-21T10:31:23.825Z,97043.78
2023-01-21T10:33:50.570Z,97029.28
2023-01-21T10:36:17.186Z,97041.84
2023-01-21T10:38:43.849Z,97032.47
2023-01-21T10:41:10.454Z,97038.75
2023-01-21T10:43:37.081Z,97038.75
2023-01-21T10:46:03.826Z,97042.03
2023-01-21T10:48:30.485Z,97047.31
2023-01-21T10:50:57.179Z,97048.78
2023-01-21T10:53:23.882Z,97046.97
2023-01-21T10:55:50.603Z,97045.34
2023-01-21T10:58:17.248Z,97045.94
2023-01-21T11:00:43.899Z,97036.28
2023-01-21T11:03:10.558Z,97041.50
2023-01-21T11:05:37.206Z,97043.84
2023-01-21T11:08:03.885Z,97040.38
2023-01-21T11:10:30.547Z,97044.97
2023-01-21T11:12:57.193Z,97043.47
2023-01-21T11:15:23.804Z,97038.91
2023-01-21T11:17:50.473Z,97035.56
2023-01-21T11:20:17.075Z,97029.56
2023-01-21T11:22:43.688Z,97030.34
2023-01-21T11:25:10.470Z,97034.13
2023-01-21T11:27:37.138Z,97030.69
2023-01-21T11:30:06.458Z,97028.72
2023-01-21T11:32:36.829Z,97037.88
2023-01-21T11:35:03.541Z,97031.78
2023-01-21T11:37:30.170Z,97032.66
2023-01-21T11:39:56.765Z,97022.09
2023-01-21T11:42:23.412Z,97025.72
2023-01-21T11:44:50.056Z,97020.75
2023-01-21T11:47:16.719Z,97014.16
2023-01-21T11:49:43.392Z,97013.28
2023-01-21T11:52:10.158Z,97008.13
2023-01-21T11:54:36.811Z,97008.25
2023-01-21T11:57:03.422Z,97007.94
2023-01-21T11:59:31.335Z,97013.63
2023-01-21T12:01:59.572Z,97017.78
2023-01-21T12:04:26.198Z,97019.59
2023-01-21T12:06:52.855Z,97012.66
2023-01-21T12:09:19.567Z,97017.47
2023-01-21T12:11:46.250Z,97010.00
2023-01-21T12:14:12.928Z,97012.75
2023-01-21T12:16:39.600Z,97011.34
2023-01-21T12:19:08.304Z,97010.03
2023-01-21T12:21:35.863Z,97011.94
2023-01-21T12:24:02.537Z,97006.28
2023-01-21T12:26:29.161Z,97011.63
2023-01-21T12:28:55.811Z,97014.25
2023-01-21T12:31:22.591Z,97018.88
2023-01-21T12:33:49.307Z,97020.69
2023-01-21T12:36:15.975Z,97019.94
2023-01-21T12:38:42.615Z,97017.59
2023-01-21T12:41:09.223Z,97015.00
2023-01-21T12:43:35.860Z,97024.88
2023-01-21T12:46:02.587Z,97023.81
2023-01-21T12:48:29.834Z,97020.03
2023-01-21T12:50:56.526Z,97019.44
2023-01-21T12:53:23.195Z,97017.59
2023-01-21T12:55:50.025Z,97023.63
2023-01-21T12:58:16.640Z,97020.56
2023-01-21T13:00:43.315Z,97029.22
2023-01-21T13:03:10.041Z,97026.97
2023-01-21T13:05:36.641Z,97038.47
2023-01-21T13:08:03.314Z,97035.56
2023-01-21T13:10:29.984Z,97034.47
2023-01-21T13:12:56.722Z,97033.88
2023-01-21T13:15:23.399Z,97039.81
2023-01-21T13:17:50.098Z,97041.56
2023-01-21T13:20:17.103Z,97042.78
2023-01-21T13:22:43.909Z,97041.53
2023-01-21T13:25:10.551Z,97047.75
2023-01-21T13:27:37.183Z,97056.22
2023-01-21T13:30:03.879Z,97052.09
2023-01-21T13:32:30.521Z,97052.28
2023-01-21T13:34:57.120Z,97061.63
2023-01-21T13:37:23.798Z,97067.78
2023-01-21T13:39:50.413Z,97066.97
2023-01-21T13:42:17.101Z,97079.09
2023-01-21T13:44:43.715Z,97081.19
2023-01-21T13:47:10.363Z,97082.44
2023-01-21T13:49:37.070Z,97090.50
2023-01-21T13:52:03.741Z,97080.47
2023-01-21T13:54:30.373Z,97093.50
2023-01-21T13:56:57.049Z,97100.22
2023-01-21T13:59:24.867Z,97098.31
2023-01-21T14:01:51.580Z,97106.66
2023-01-21T14:04:18.227Z,97114.72
2023-01-21T14:06:45.128Z,97110.13
2023-01-21T14:09:11.776Z,97110.81
2023-01-21T14:11:38.385Z,97104.81
2023-01-21T14:14:05.021Z,97108.34
2023-01-21T14:16:31.706Z,97117.53
2023-01-21T14:18:58.418Z,97123.00
2023-01-21T14:21:25.063Z,97126.13
2023-01-21T14:23:51.721Z,97130.41
2023-01-21T14:26:18.389Z,97133.59
2023-01-21T14:28:45.178Z,97134.03
2023-01-21T14:31:11.981Z,97130.25
2023-01-21T14:33:38.762Z,97144.06
2023-01-21T14:36:05.479Z,97144.75
2023-01-21T14:38:32.128Z,97148.31
2023-01-21T14:40:58.786Z,97166.44
2023-01-21T14:43:25.430Z,97161.53
2023-01-21T14:45:52.461Z,97165.78
2023-01-21T14:48:19.175Z,97161.91
2023-01-21T14:50:45.853Z,97168.91
2023-01-21T14:53:12.564Z,97167.34
2023-01-21T14:55:39.231Z,97168.16
2023-01-21T14:58:05.871Z,97186.44
2023-01-21T15:00:32.553Z,97188.47
2023-01-21T15:02:59.212Z,97194.97
2023-01-21T15:05:25.922Z,97198.56
2023-01-21T15:07:52.589Z,97203.78
2023-01-21T15:10:19.328Z,97208.41
2023-01-21T15:12:45.987Z,97209.13
2023-01-21T15:15:12.624Z,97213.09
2023-01-21T15:17:39.253Z,97209.19
2023-01-21T15:20:05.865Z,97209.16
2023-01-21T15:22:32.493Z,97213.78
2023-01-21T15:24:59.120Z,97215.22
2023-01-21T15:27:25.812Z,97225.03
2023-01-21T15:29:52.465Z,97230.91
2023-01-21T15:32:19.131Z,97235.63
2023-01-21T15:34:45.852Z,97238.56
2023-01-21T15:37:12.520Z,97243.47
2023-01-21T15:39:39.213Z,97238.75
2023-01-21T15:42:05.887Z,97245.13
2023-01-21T15:44:32.978Z,97248.44
2023-01-21T15:46:59.711Z,97248.75
2023-01-21T15:49:26.321Z,97258.38
2023-01-21T15:51:52.968Z,97253.34
2023-01-21T15:54:19.637Z,97251.53
2023-01-21T15:56:46.337Z,97255.28
2023-01-21T15:59:13.015Z,97262.78
2023-01-21T16:01:39.744Z,97256.56
2023-01-21T16:04:06.422Z,97265.06
2023-01-21T16:06:33.034Z,97259.03
2023-01-21T16:09:01.947Z,97263.25
2023-01-21T16:11:29.421Z,97268.81
2023-01-21T16:13:56.060Z,97269.91
2023-01-21T16:16:22.801Z,97270.19
2023-01-21T16:18:49.543Z,97273.81
2023-01-21T16:21:16.187Z,97272.25
2023-01-21T16:23:42.898Z,97278.44
2023-01-21T16:26:09.534Z,97277.47
2023-01-21T16:28:36.207Z,97273.53
2023-01-21T16:31:03.062Z,97279.69
2023-01-21T16:33:29.788Z,97284.50
2023-01-21T16:35:56.456Z,97287.38
2023-01-21T16:38:23.132Z,97293.41
2023-01-21T16:40:49.782Z,97286.22
2023-01-21T16:43:16.404Z,97293.38
2023-01-21T16:45:43.026Z,97293.56
2023-01-21T16:48:09.667Z,97294.00
2023-01-21T16:50:36.313Z,97289.53
2023-01-21T16:53:02.998Z,97286.53
2023-01-21T16:55:29.700Z,97295.75
2023-01-21T16:57:56.366Z,97288.78
2023-01-21T17:00:23.033Z,97303.81
2023-01-21T17:02:49.709Z,97301.47
2023-01-21T17:05:16.706Z,97306.09
2023-01-21T17:07:43.602Z,97300.28
2023-01-21T17:10:10.357Z,97309.97
2023-01-21T17:12:37.052Z,97313.59
2023-01-21T17:15:03.754Z,97308.63
2023-01-21T17:17:30.398Z,97313.22
2023-01-21T17:19:57.061Z,97319.09
2023-01-21T17:22:23.836Z,97314.53
2023-01-21T17:24:50.514Z,97318.22
2023-01-21T17:27:17.179Z,97319.25
2023-01-21T17:29:45.305Z,97321.59
2023-01-21T17:32:12.152Z,97328.50
2023-01-21T17:34:38.781Z,97327.84
2023-01-21T17:37:05.449Z,97339.34
2023-01-21T17:39:32.134Z,97340.91
2023-01-21T17:41:59.019Z,97341.56
2023-01-21T17:44:25.727Z,97348.41
2023-01-21T17:46:52.379Z,97344.75
2023-01-21T17:49:19.096Z,97341.38
2023-01-21T17:51:46.112Z,97343.63
2023-01-21T17:54:12.793Z,97342.28
2023-01-21T17:56:39.503Z,97336.63
2023-01-21T17:59:06.168Z,97338.56
2023-01-21T18:01:32.893Z,97338.66
2023-01-21T18:03:59.572Z,97337.75
2023-01-21T18:06:26.281Z,97342.69
2023-01-21T18:08:53.219Z,97344.38
2023-01-21T18:11:19.831Z,97361.31
2023-01-21T18:13:46.512Z,97358.44
2023-01-21T18:16:13.265Z,97373.22
2023-01-21T18:18:39.996Z,97367.34
2023-01-21T18:21:06.751Z,97368.19
2023-01-21T18:23:33.378Z,97373.09
2023-01-21T18:26:00.073Z,97366.88
2023-01-21T18:28:26.752Z,97374.31
2023-01-21T18:30:53.590Z,97371.16
2023-01-21T18:33:20.386Z,97374.34
2023-01-21T18:35:47.032Z,97373.09
2023-01-21T18:38:13.694Z,97380.69
2023-01-21T18:40:40.377Z,97384.16
2023-01-21T18:43:07.081Z,97378.22
2023-01-21T18:45:33.863Z,97385.06
2023-01-21T18:48:00.544Z,97390.81
2023-01-21T18:50:27.209Z,97378.97
2023-01-21T18:52:53.867Z,97384.22
2023-01-21T18:55:20.659Z,97397.84
2023-01-21T18:57:47.296Z,97396.06
2023-01-21T19:00:13.937Z,97401.47
2023-01-21T19:02:40.585Z,97399.84
2023-01-21T19:05:07.244Z,97405.63
2023-01-21T19:07:33.918Z,97406.88
2023-01-21T19:10:00.666Z,97405.81
2023-01-21T19:12:27.353Z,97409.72
2023-01-21T19:14:54.089Z,97413.06
2023-01-21T19:17:20.756Z,97410.50
2023-01-21T19:19:47.478Z,97411.97
2023-01-21T19:22:14.130Z,97414.25
2023-01-21T19:24:40.787Z,97415.13
2023-01-21T19:27:07.487Z,97423.06
2023-01-21T19:29:34.106Z,97420.88
2023-01-21T19:32:00.843Z,97420.47
2023-01-21T19:34:27.531Z,97424.66
2023-01-21T19:36:54.193Z,97421.25
2023-01-21T19:39:20.866Z,97426.75
2023-01-21T19:41:48.587Z,97422.19
2023-01-21T19:44:17.827Z,97434.00
2023-01-21T19:46:44.522Z,97433.44
2023-01-21T19:49:11.199Z,97436.16
2023-01-21T19:51:37.867Z,97439.91
2023-01-21T19:54:04.557Z,97441.69
2023-01-21T19:56:31.187Z,97438.38
2023-01-21T19:58:57.891Z,97440.56
2023-01-21T20:01:24.543Z,97441.03
2023-01-21T20:04:00.143Z,97434.56
2023-01-21T20:06:27.488Z,97440.47
2023-01-21T20:08:54.193Z,97445.44
2023-01-21T20:11:20.955Z,97447.38
2023-01-21T20:13:47.576Z,97450.25
2023-01-21T20:16:14.273Z,97450.03
2023-01-21T20:18:40.964Z,97452.78
2023-01-21T20:21:07.635Z,97453.44
2023-01-21T20:23:34.622Z,97467.19
2023-01-21T20:26:01.247Z,97462.63
2023-01-21T20:28:27.850Z,97461.13
2023-01-21T20:30:54.585Z,97463.88
2023-01-21T20:33:21.223Z,97463.94
2023-01-21T20:35:47.875Z,97458.63
2023-01-21T20:38:14.518Z,97458.47
2023-01-21T20:40:41.209Z,97464.84
2023-01-21T20:43:07.857Z,97458.66
2023-01-21T20:45:34.514Z,97457.66
2023-01-21T20:48:01.222Z,97459.50
2023-01-21T20:50:27.854Z,97458.84
2023-01-21T20:52:54.513Z,97465.88
2023-01-21T20:55:21.697Z,97472.81
2023-01-21T20:57:48.558Z,97481.50
2023-01-21T21:00:15.215Z,97479.19
2023-01-21T21:02:41.866Z,97482.50
2023-01-21T21:05:08.531Z,97486.41
2023-01-21T21:07:35.239Z,97481.13
2023-01-21T21:10:01.932Z,97479.13
2023-01-21T21:12:28.577Z,97485.69
2023-01-21T21:14:55.253Z,97492.56
2023-01-21T21:17:21.904Z,97490.28
2023-01-21T21:19:48.596Z,97491.88
2023-01-21T21:22:15.211Z,97489.63
2023-01-21T21:24:41.864Z,97492.13
2023-01-21T21:27:08.589Z,97480.13
2023-01-21T21:29:35.247Z,97475.47
2023-01-21T21:32:01.950Z,97490.97
2023-01-21T21:34:28.618Z,97490.56
2023-01-21T21:36:55.297Z,97495.34
2023-01-21T21:39:21.969Z,97499.38
2023-01-21T21:41:48.589Z,97506.31
2023-01-21T21:44:15.239Z,97495.81
2023-01-21T21:46:41.866Z,97495.66
2023-01-21T21:49:08.495Z,97497.59
2023-01-21T21:51:35.138Z,97500.66
2023-01-21T21:54:01.836Z,97492.50
2023-01-21T21:56:28.488Z,97496.31
2023-01-21T21:58:55.131Z,97501.47
2023-01-21T22:01:21.826Z,97497.25
2023-01-21T22:03:48.497Z,97490.50
2023-01-21T22:06:15.144Z,97486.84
2023-01-21T22:08:41.878Z,97492.81
2023-01-21T22:11:08.559Z,97488.91
2023-01-21T22:13:35.198Z,97489.03
2023-01-21T22:16:01.838Z,97492.97
2023-01-21T22:18:28.533Z,97493.72
2023-01-21T22:20:55.257Z,97491.50
2023-01-21T22:23:21.919Z,97490.75
2023-01-21T22:25:48.606Z,97490.09
2023-01-21T22:28:15.229Z,97496.31
2023-01-21T22:30:42.034Z,97487.53
2023-01-21T22:33:08.695Z,97493.34
2023-01-21T22:35:35.362Z,97489.41
2023-01-21T22:38:01.972Z,97492.81
2023-01-21T22:40:28.609Z,97494.69
2023-01-21T22:42:55.236Z,97492.81
2023-01-21T22:45:22.397Z,97493.13
2023-01-21T22:47:49.161Z,97497.63
2023-01-21T22:50:15.808Z,97493.84
2023-01-21T22:52:42.580Z,97487.97
2023-01-21T22:55:09.214Z,97498.53
2023-01-21T22:57:35.870Z,97489.59
2023-01-21T23:00:02.713Z,97488.88
2023-01-21T23:02:29.460Z,97481.94
2023-01-21T23:04:56.154Z,97492.09
2023-01-21T23:07:22.803Z,97484.75
2023-01-21T23:09:49.427Z,97484.00
2023-01-21T23:12:16.083Z,97482.91
2023-01-21T23:14:42.760Z,97483.72
2023-01-21T23:17:09.372Z,97491.91
2023-01-21T23:19:35.993Z,97478.53
2023-01-21T23:22:02.608Z,97477.63
2023-01-21T23:24:29.255Z,97482.09
2023-01-21T23:26:55.941Z,97483.00
2023-01-21T23:29:22.636Z,97478.00
2023-01-21T23:31:49.421Z,97478.13
2023-01-21T23:34:16.130Z,97476.28
2023-01-21T23:36:42.827Z,97483.44
2023-01-21T23:39:09.449Z,97477.41
2023-01-21T23:41:36.173Z,97480.78
2023-01-21T23:44:02.812Z,97487.19
2023-01-21T23:46:29.561Z,97485.09
2023-01-21T23:48:56.347Z,97494.63
2023-01-21T23:51:23.071Z,97491.81
2023-01-21T23:53:49.857Z,97490.47
2023-01-21T23:56:16.589Z,97493.00
2023-01-21T23:58:43.287Z,97488.22
